Aurora — V7BS9 — position and weather

sailwx.info

Track history (hours):
 
Tides and Currents Weather Stations Pressure Air Temp Water Temp Dewpoint Dewpoint Depression Visibility Wind Speed Wind Dir Waves Ship Positions

Aurora

Last reported at 2017-Jan-18 14:25 UTC. Time now 2017-Jan-24 21:27 UTC.
Position N 34°23' W 076°36'.

Length 170 m; draft 6.3 m.

Type: Tanker. MMSI: 538001356.

Date/timePositionNaut miles runAvg speedWind from/ knotsBaromVisibWave heightAir tempDewpointWater temp
2017-Jan-18 14:25N 34°23' W 076°36'8 9.7
2017-Jan-18 13:34N 34°31' W 076°38'9 9.4
2017-Jan-18 12:33N 34°40' W 076°40'3 3.3
2017-Jan-18 11:31N 34°43' W 076°42'0 0.0
2017-Jan-18 10:33N 34°43' W 076°42'0 0.0
2017-Jan-18 09:33N 34°43' W 076°42'0 0.0
2017-Jan-18 08:33N 34°43' W 076°42'0 0.0
2017-Jan-18 07:33N 34°43' W 076°42'0 0.0
2017-Jan-18 06:33N 34°43' W 076°42'0 0.0
2017-Jan-18 05:31N 34°43' W 076°42'0 0.0
2017-Jan-18 04:31N 34°43' W 076°42'0 0.0
2017-Jan-18 03:33N 34°43' W 076°42'0 0.0
2017-Jan-18 02:33N 34°43' W 076°42'0 0.0
2017-Jan-18 01:31N 34°43' W 076°42'0 0.0
2017-Jan-18 00:29N 34°43' W 076°42'0 0.0
2017-Jan-17 23:32N 34°43' W 076°42'0 0.0
2017-Jan-17 22:31N 34°43' W 076°42'0 0.0
2017-Jan-17 21:30N 34°43' W 076°42'0 0.0
2017-Jan-17 20:33N 34°43' W 076°42'0 0.0
2017-Jan-17 19:33N 34°43' W 076°42'0 0.0
2017-Jan-17 18:31N 34°43' W 076°42'0 0.0
2017-Jan-17 17:31N 34°43' W 076°42'0 0.0
2017-Jan-17 16:33N 34°43' W 076°42'0 0.0
2017-Jan-17 15:33N 34°43' W 076°42'0 0.0
2017-Jan-17 14:28N 34°43' W 076°42'0 0.0
2017-Jan-17 13:33N 34°43' W 076°42'5 5.0
2017-Jan-17 12:33N 34°38' W 076°40'0 0.4
2017-Jan-17 11:32N 34°38' W 076°40'0 0.1
2017-Jan-17 10:32N 34°38' W 076°40'0 0.0
2017-Jan-17 09:32N 34°38' W 076°40'0 0.0
2017-Jan-17 08:32N 34°38' W 076°40'0 0.0
2017-Jan-17 07:32N 34°38' W 076°40'0 0.0
2017-Jan-17 06:32N 34°38' W 076°40'0 0.0
2017-Jan-17 05:33N 34°38' W 076°40'0 0.1
2017-Jan-17 04:33N 34°38' W 076°40'0 0.0
2017-Jan-17 03:33N 34°38' W 076°40'0 0.0
2017-Jan-17 02:33N 34°38' W 076°40'0 0.0
2017-Jan-17 01:32N 34°38' W 076°40'0 0.0
2017-Jan-17 00:32N 34°38' W 076°40'0 0.0
2017-Jan-16 23:32N 34°38' W 076°40'0 0.0
2017-Jan-16 22:32N 34°38' W 076°40'0 0.0
2017-Jan-16 21:31N 34°38' W 076°40'0 0.0
2017-Jan-16 20:31N 34°38' W 076°40'0 0.0
2017-Jan-16 19:31N 34°38' W 076°40'0 0.0
2017-Jan-16 18:31N 34°38' W 076°40'0 0.0
2017-Jan-16 17:31N 34°38' W 076°40'0 0.0
2017-Jan-16 16:31N 34°38' W 076°40'0 0.0
2017-Jan-16 15:31N 34°38' W 076°40'0 0.0
2017-Jan-16 14:31N 34°38' W 076°40'0 0.0
2017-Jan-16 13:28N 34°38' W 076°40'0 0.0
2017-Jan-14 22:29N 34°38' W 076°40'0 0.0
2017-Jan-14 21:32N 34°38' W 076°40'0 0.1
2017-Jan-14 20:32N 34°38' W 076°40'0 0.0
2017-Jan-14 19:32N 34°38' W 076°40'0 0.0
2017-Jan-14 18:32N 34°38' W 076°40'0 0.0
2017-Jan-14 17:32N 34°38' W 076°40'0 0.0
2017-Jan-14 16:32N 34°38' W 076°40'0 0.0
2017-Jan-14 15:31N 34°38' W 076°40'0 0.0
2017-Jan-14 14:31N 34°38' W 076°40'0 0.0
2017-Jan-14 13:31N 34°38' W 076°40'0 0.0
2017-Jan-14 12:31N 34°38' W 076°40'0 0.0
2017-Jan-14 11:31N 34°38' W 076°40'0 0.0
2017-Jan-14 10:31N 34°38' W 076°40'0 0.0
2017-Jan-14 09:31N 34°38' W 076°40'0 0.0
2017-Jan-14 08:31N 34°38' W 076°40'0 0.0
2017-Jan-14 07:31N 34°38' W 076°40'0 0.0
2017-Jan-14 06:31N 34°38' W 076°40'0 0.0
2017-Jan-14 05:33N 34°38' W 076°40'0 0.0
2017-Jan-14 04:33N 34°38' W 076°40'0 0.0
2017-Jan-14 03:33N 34°38' W 076°40'0 0.0
2017-Jan-13 23:31N 34°38' W 076°40'0 0.1
2017-Jan-13 22:31N 34°38' W 076°40'0 0.1
2017-Jan-13 21:31N 34°38' W 076°40'0 0.1
2017-Jan-13 20:31N 34°38' W 076°39'0 0.0
2017-Jan-13 19:31N 34°38' W 076°39'0 0.0
2017-Jan-13 18:31N 34°38' W 076°39'0 0.0
2017-Jan-13 17:31N 34°38' W 076°39'0 0.0
2017-Jan-13 16:31N 34°38' W 076°39'0 0.0
2017-Jan-13 15:31N 34°38' W 076°39'0 0.0
2017-Jan-13 14:31N 34°38' W 076°39'0 0.0
2017-Jan-13 13:32N 34°38' W 076°39'0 0.0
2017-Jan-13 12:31N 34°38' W 076°40'0 0.0
2017-Jan-13 11:32N 34°38' W 076°40'0 0.0
2017-Jan-13 10:32N 34°38' W 076°40'0 0.0
2017-Jan-13 09:32N 34°38' W 076°40'0 0.1
2017-Jan-13 08:32N 34°38' W 076°39'0 0.0
2017-Jan-13 07:32N 34°38' W 076°39'0 0.1
2017-Jan-13 06:32N 34°38' W 076°39'0 0.1
2017-Jan-13 05:32N 34°38' W 076°39'0 0.1
2017-Jan-13 04:33N 34°38' W 076°40'0 0.0
2017-Jan-13 03:33N 34°38' W 076°40'0 0.0
2017-Jan-13 02:31N 34°38' W 076°40'0 0.0
2017-Jan-13 01:31N 34°38' W 076°40'0 0.0
2017-Jan-13 00:32N 34°38' W 076°40'0 0.0
2017-Jan-12 23:31N 34°38' W 076°40'0 0.0
2017-Jan-12 22:31N 34°38' W 076°40'0 0.0
2017-Jan-12 21:31N 34°38' W 076°40'0 0.0
2017-Jan-12 20:31N 34°38' W 076°40'0 0.0
2017-Jan-12 19:31N 34°38' W 076°39'0 0.0
2017-Jan-12 18:33N 34°38' W 076°39'0 0.0
2017-Jan-12 17:31N 34°38' W 076°39'0 0.0
2017-Jan-12 16:31N 34°38' W 076°39'0 0.0
2017-Jan-12 15:32N 34°38' W 076°40'0 0.0
2017-Jan-12 14:32N 34°38' W 076°40'0 0.0
2017-Jan-12 13:32N 34°38' W 076°40'0 0.0
2017-Jan-12 12:32N 34°38' W 076°40'0 0.0
2017-Jan-12 11:31N 34°38' W 076°40'0 0.0
2017-Jan-12 10:33N 34°38' W 076°40'0 0.0
2017-Jan-12 09:33N 34°38' W 076°40'0 0.0
2017-Jan-12 08:31N 34°38' W 076°40'0 0.0
2017-Jan-12 07:31N 34°38' W 076°40'0 0.0
2017-Jan-12 06:31N 34°38' W 076°40'0 0.0
2017-Jan-12 05:33N 34°38' W 076°40'0 0.0
2017-Jan-12 04:33N 34°38' W 076°40'0 0.0
2017-Jan-12 03:33N 34°38' W 076°40'0 0.0
2017-Jan-12 02:33N 34°38' W 076°40'0 0.0
2017-Jan-12 01:32N 34°38' W 076°40'0 0.0
2017-Jan-12 00:33N 34°38' W 076°40'0 0.0
2017-Jan-11 23:33N 34°38' W 076°40'0 0.1
2017-Jan-11 22:33N 34°38' W 076°40'0 0.0
2017-Jan-11 21:31N 34°38' W 076°40'0 0.0
2017-Jan-11 20:31N 34°38' W 076°40'0 0.0
2017-Jan-11 19:33N 34°38' W 076°40'0 0.0
2017-Jan-11 18:33N 34°38' W 076°40'0 0.1
2017-Jan-11 17:32N 34°38' W 076°39'0 0.0
2017-Jan-11 16:30N 34°38' W 076°40'0 0.0
2017-Jan-11 15:31N 34°38' W 076°40'0 0.0
2017-Jan-11 14:31N 34°38' W 076°40'0 0.0
2017-Jan-11 13:31N 34°38' W 076°40'0 0.0
2017-Jan-11 12:31N 34°38' W 076°40'0 0.0
2017-Jan-11 11:31N 34°38' W 076°40'0 0.0
2017-Jan-11 10:33N 34°38' W 076°40'0 0.0
2017-Jan-11 09:33N 34°38' W 076°40'0 0.0
2017-Jan-11 08:33N 34°38' W 076°40'0 0.0
2017-Jan-11 07:33N 34°38' W 076°40'0 0.0
2017-Jan-11 06:33N 34°38' W 076°40'0 0.0
2017-Jan-11 05:33N 34°38' W 076°40'0 0.0
2017-Jan-11 04:33N 34°38' W 076°40'0 0.0
2017-Jan-11 03:33N 34°38' W 076°40'0 0.0
2017-Jan-11 02:33N 34°38' W 076°40'0 0.0
2017-Jan-11 01:33N 34°38' W 076°40'0 0.0
2017-Jan-11 00:33N 34°38' W 076°40'0 0.1
2017-Jan-10 23:33N 34°38' W 076°40'0 0.1
2017-Jan-10 22:33N 34°38' W 076°40'0 0.0
2017-Jan-10 21:28N 34°38' W 076°40'0 0.0
2017-Jan-10 20:31N 34°38' W 076°40'0 0.0
2017-Jan-10 19:31N 34°38' W 076°40'0 0.0
2017-Jan-10 18:33N 34°38' W 076°40'0 0.0
2017-Jan-10 17:31N 34°38' W 076°40'0 0.0
2017-Jan-10 16:31N 34°38' W 076°40'0 0.0
2017-Jan-10 15:32N 34°38' W 076°40'0 0.0
2017-Jan-10 14:32N 34°38' W 076°40'0 0.0
2017-Jan-10 13:32N 34°38' W 076°40'0 0.0
2017-Jan-10 12:33N 34°38' W 076°40'0 0.0
2017-Jan-10 11:30N 34°38' W 076°40'0 0.0
2017-Jan-10 10:32N 34°38' W 076°40'0 0.1
2017-Jan-10 09:31N 34°38' W 076°40'0 0.0
2017-Jan-10 08:31N 34°38' W 076°40'0 0.0
2017-Jan-10 07:31N 34°38' W 076°40'0 0.0
2017-Jan-10 06:31N 34°38' W 076°40'0 0.0
2017-Jan-10 05:32N 34°38' W 076°40'0 0.0
2017-Jan-10 04:29N 34°38' W 076°40'0 0.0
2017-Jan-10 03:32N 34°38' W 076°40'0 0.0
2017-Jan-10 02:32N 34°38' W 076°40'0 0.0
2017-Jan-10 01:32N 34°38' W 076°40'0 0.0
2017-Jan-10 00:31N 34°38' W 076°40'0 0.0
2017-Jan-09 23:31N 34°38' W 076°40'0 0.0
2017-Jan-09 22:31N 34°38' W 076°40'0 0.0
2017-Jan-09 21:32N 34°38' W 076°40'0 0.0
2017-Jan-09 20:33N 34°38' W 076°40'0 0.1
2017-Jan-09 19:31N 34°38' W 076°40'0 0.0
2017-Jan-09 18:31N 34°38' W 076°40'0 0.0
2017-Jan-09 17:32N 34°38' W 076°40'0 0.0
2017-Jan-09 16:33N 34°38' W 076°40'0 0.0
2017-Jan-09 15:33N 34°38' W 076°40'0 0.0
2017-Jan-09 14:33N 34°38' W 076°40'0 0.0
2017-Jan-09 13:33N 34°38' W 076°40'0 0.0
2017-Jan-09 12:30N 34°38' W 076°40'0 0.0
2017-Jan-09 11:33N 34°38' W 076°40'0 0.0
2017-Jan-09 10:33N 34°38' W 076°40'0 0.0
2017-Jan-09 09:33N 34°38' W 076°40'0 0.0
2017-Jan-09 08:33N 34°38' W 076°40'0 0.0
2017-Jan-09 07:31N 34°38' W 076°40'0 0.0
2017-Jan-09 06:31N 34°38' W 076°40'0 0.0
2017-Jan-09 05:31N 34°38' W 076°40'0 0.0
2017-Jan-09 04:31N 34°38' W 076°40'0 0.0
2017-Jan-09 03:31N 34°38' W 076°40'0 0.0
2017-Jan-09 02:33N 34°38' W 076°39'0 0.0
2017-Jan-09 01:26N 34°38' W 076°39'0 0.0
2017-Jan-09 00:32N 34°38' W 076°39'0 0.0
2017-Jan-08 23:31N 34°38' W 076°39'0 0.0
2017-Jan-08 22:31N 34°38' W 076°40'0 0.0
2017-Jan-08 21:31N 34°38' W 076°39'0 0.0
2017-Jan-08 20:29N 34°38' W 076°40'0 0.0
2017-Jan-08 19:31N 34°38' W 076°39'0 0.0
2017-Jan-08 18:31N 34°38' W 076°39'0 0.0
2017-Jan-08 17:31N 34°38' W 076°39'0 0.0
2017-Jan-08 16:31N 34°38' W 076°40'0 0.0
2017-Jan-08 15:31N 34°38' W 076°40'0 0.0
2017-Jan-08 14:31N 34°38' W 076°40'  
Track history (hours):
 
Tides and Currents Weather Stations Pressure Air Temp Water Temp Dewpoint Dewpoint Depression Visibility Wind Speed Wind Dir Waves Ship Positions

Aurora

Last reported at 2017-Jan-18 14:25 UTC. Time now 2017-Jan-24 21:27 UTC.
Position N 34°23' W 076°36'.

Length 170 m; draft 6.3 m.

Type: Tanker. MMSI: 538001356.

Date/timePositionNaut miles runAvg speedWind from/ knotsBaromVisibWave heightAir tempDewpointWater temp
2017-Jan-18 14:25N 34°23' W 076°36'8 9.7
2017-Jan-18 13:34N 34°31' W 076°38'9 9.4
2017-Jan-18 12:33N 34°40' W 076°40'3 3.3
2017-Jan-18 11:31N 34°43' W 076°42'0 0.0
2017-Jan-18 10:33N 34°43' W 076°42'0 0.0
2017-Jan-18 09:33N 34°43' W 076°42'0 0.0
2017-Jan-18 08:33N 34°43' W 076°42'0 0.0
2017-Jan-18 07:33N 34°43' W 076°42'0 0.0
2017-Jan-18 06:33N 34°43' W 076°42'0 0.0
2017-Jan-18 05:31N 34°43' W 076°42'0 0.0
2017-Jan-18 04:31N 34°43' W 076°42'0 0.0
2017-Jan-18 03:33N 34°43' W 076°42'0 0.0
2017-Jan-18 02:33N 34°43' W 076°42'0 0.0
2017-Jan-18 01:31N 34°43' W 076°42'0 0.0
2017-Jan-18 00:29N 34°43' W 076°42'0 0.0
2017-Jan-17 23:32N 34°43' W 076°42'0 0.0
2017-Jan-17 22:31N 34°43' W 076°42'0 0.0
2017-Jan-17 21:30N 34°43' W 076°42'0 0.0
2017-Jan-17 20:33N 34°43' W 076°42'0 0.0
2017-Jan-17 19:33N 34°43' W 076°42'0 0.0
2017-Jan-17 18:31N 34°43' W 076°42'0 0.0
2017-Jan-17 17:31N 34°43' W 076°42'0 0.0
2017-Jan-17 16:33N 34°43' W 076°42'0 0.0
2017-Jan-17 15:33N 34°43' W 076°42'0 0.0
2017-Jan-17 14:28N 34°43' W 076°42'0 0.0
2017-Jan-17 13:33N 34°43' W 076°42'5 5.0
2017-Jan-17 12:33N 34°38' W 076°40'0 0.4
2017-Jan-17 11:32N 34°38' W 076°40'0 0.1
2017-Jan-17 10:32N 34°38' W 076°40'0 0.0
2017-Jan-17 09:32N 34°38' W 076°40'0 0.0
2017-Jan-17 08:32N 34°38' W 076°40'0 0.0
2017-Jan-17 07:32N 34°38' W 076°40'0 0.0
2017-Jan-17 06:32N 34°38' W 076°40'0 0.0
2017-Jan-17 05:33N 34°38' W 076°40'0 0.1
2017-Jan-17 04:33N 34°38' W 076°40'0 0.0
2017-Jan-17 03:33N 34°38' W 076°40'0 0.0
2017-Jan-17 02:33N 34°38' W 076°40'0 0.0
2017-Jan-17 01:32N 34°38' W 076°40'0 0.0
2017-Jan-17 00:32N 34°38' W 076°40'0 0.0
2017-Jan-16 23:32N 34°38' W 076°40'0 0.0
2017-Jan-16 22:32N 34°38' W 076°40'0 0.0
2017-Jan-16 21:31N 34°38' W 076°40'0 0.0
2017-Jan-16 20:31N 34°38' W 076°40'0 0.0
2017-Jan-16 19:31N 34°38' W 076°40'0 0.0
2017-Jan-16 18:31N 34°38' W 076°40'0 0.0
2017-Jan-16 17:31N 34°38' W 076°40'0 0.0
2017-Jan-16 16:31N 34°38' W 076°40'0 0.0
2017-Jan-16 15:31N 34°38' W 076°40'0 0.0
2017-Jan-16 14:31N 34°38' W 076°40'0 0.0
2017-Jan-16 13:28N 34°38' W 076°40'0 0.0
2017-Jan-14 22:29N 34°38' W 076°40'0 0.0
2017-Jan-14 21:32N 34°38' W 076°40'0 0.1
2017-Jan-14 20:32N 34°38' W 076°40'0 0.0
2017-Jan-14 19:32N 34°38' W 076°40'0 0.0
2017-Jan-14 18:32N 34°38' W 076°40'0 0.0
2017-Jan-14 17:32N 34°38' W 076°40'0 0.0
2017-Jan-14 16:32N 34°38' W 076°40'0 0.0
2017-Jan-14 15:31N 34°38' W 076°40'0 0.0
2017-Jan-14 14:31N 34°38' W 076°40'0 0.0
2017-Jan-14 13:31N 34°38' W 076°40'0 0.0
2017-Jan-14 12:31N 34°38' W 076°40'0 0.0
2017-Jan-14 11:31N 34°38' W 076°40'0 0.0
2017-Jan-14 10:31N 34°38' W 076°40'0 0.0
2017-Jan-14 09:31N 34°38' W 076°40'0 0.0
2017-Jan-14 08:31N 34°38' W 076°40'0 0.0
2017-Jan-14 07:31N 34°38' W 076°40'0 0.0
2017-Jan-14 06:31N 34°38' W 076°40'0 0.0
2017-Jan-14 05:33N 34°38' W 076°40'0 0.0
2017-Jan-14 04:33N 34°38' W 076°40'0 0.0
2017-Jan-14 03:33N 34°38' W 076°40'0 0.0
2017-Jan-13 23:31N 34°38' W 076°40'0 0.1
2017-Jan-13 22:31N 34°38' W 076°40'0 0.1
2017-Jan-13 21:31N 34°38' W 076°40'0 0.1
2017-Jan-13 20:31N 34°38' W 076°39'0 0.0
2017-Jan-13 19:31N 34°38' W 076°39'0 0.0
2017-Jan-13 18:31N 34°38' W 076°39'0 0.0
2017-Jan-13 17:31N 34°38' W 076°39'0 0.0
2017-Jan-13 16:31N 34°38' W 076°39'0 0.0
2017-Jan-13 15:31N 34°38' W 076°39'0 0.0
2017-Jan-13 14:31N 34°38' W 076°39'0 0.0
2017-Jan-13 13:32N 34°38' W 076°39'0 0.0
2017-Jan-13 12:31N 34°38' W 076°40'0 0.0
2017-Jan-13 11:32N 34°38' W 076°40'0 0.0
2017-Jan-13 10:32N 34°38' W 076°40'0 0.0
2017-Jan-13 09:32N 34°38' W 076°40'0 0.1
2017-Jan-13 08:32N 34°38' W 076°39'0 0.0
2017-Jan-13 07:32N 34°38' W 076°39'0 0.1
2017-Jan-13 06:32N 34°38' W 076°39'0 0.1
2017-Jan-13 05:32N 34°38' W 076°39'0 0.1
2017-Jan-13 04:33N 34°38' W 076°40'0 0.0
2017-Jan-13 03:33N 34°38' W 076°40'0 0.0
2017-Jan-13 02:31N 34°38' W 076°40'0 0.0
2017-Jan-13 01:31N 34°38' W 076°40'0 0.0
2017-Jan-13 00:32N 34°38' W 076°40'0 0.0
2017-Jan-12 23:31N 34°38' W 076°40'0 0.0
2017-Jan-12 22:31N 34°38' W 076°40'0 0.0
2017-Jan-12 21:31N 34°38' W 076°40'0 0.0
2017-Jan-12 20:31N 34°38' W 076°40'0 0.0
2017-Jan-12 19:31N 34°38' W 076°39'0 0.0
2017-Jan-12 18:33N 34°38' W 076°39'0 0.0
2017-Jan-12 17:31N 34°38' W 076°39'0 0.0
2017-Jan-12 16:31N 34°38' W 076°39'0 0.0
2017-Jan-12 15:32N 34°38' W 076°40'0 0.0
2017-Jan-12 14:32N 34°38' W 076°40'0 0.0
2017-Jan-12 13:32N 34°38' W 076°40'0 0.0
2017-Jan-12 12:32N 34°38' W 076°40'0 0.0
2017-Jan-12 11:31N 34°38' W 076°40'0 0.0
2017-Jan-12 10:33N 34°38' W 076°40'0 0.0
2017-Jan-12 09:33N 34°38' W 076°40'0 0.0
2017-Jan-12 08:31N 34°38' W 076°40'0 0.0
2017-Jan-12 07:31N 34°38' W 076°40'0 0.0
2017-Jan-12 06:31N 34°38' W 076°40'0 0.0
2017-Jan-12 05:33N 34°38' W 076°40'0 0.0
2017-Jan-12 04:33N 34°38' W 076°40'0 0.0
2017-Jan-12 03:33N 34°38' W 076°40'0 0.0
2017-Jan-12 02:33N 34°38' W 076°40'0 0.0
2017-Jan-12 01:32N 34°38' W 076°40'0 0.0
2017-Jan-12 00:33N 34°38' W 076°40'0 0.0
2017-Jan-11 23:33N 34°38' W 076°40'0 0.1
2017-Jan-11 22:33N 34°38' W 076°40'0 0.0
2017-Jan-11 21:31N 34°38' W 076°40'0 0.0
2017-Jan-11 20:31N 34°38' W 076°40'0 0.0
2017-Jan-11 19:33N 34°38' W 076°40'0 0.0
2017-Jan-11 18:33N 34°38' W 076°40'0 0.1
2017-Jan-11 17:32N 34°38' W 076°39'0 0.0
2017-Jan-11 16:30N 34°38' W 076°40'0 0.0
2017-Jan-11 15:31N 34°38' W 076°40'0 0.0
2017-Jan-11 14:31N 34°38' W 076°40'0 0.0
2017-Jan-11 13:31N 34°38' W 076°40'0 0.0
2017-Jan-11 12:31N 34°38' W 076°40'0 0.0
2017-Jan-11 11:31N 34°38' W 076°40'0 0.0
2017-Jan-11 10:33N 34°38' W 076°40'0 0.0
2017-Jan-11 09:33N 34°38' W 076°40'0 0.0
2017-Jan-11 08:33N 34°38' W 076°40'0 0.0
2017-Jan-11 07:33N 34°38' W 076°40'0 0.0
2017-Jan-11 06:33N 34°38' W 076°40'0 0.0
2017-Jan-11 05:33N 34°38' W 076°40'0 0.0
2017-Jan-11 04:33N 34°38' W 076°40'0 0.0
2017-Jan-11 03:33N 34°38' W 076°40'0 0.0
2017-Jan-11 02:33N 34°38' W 076°40'0 0.0
2017-Jan-11 01:33N 34°38' W 076°40'0 0.0
2017-Jan-11 00:33N 34°38' W 076°40'0 0.1
2017-Jan-10 23:33N 34°38' W 076°40'0 0.1
2017-Jan-10 22:33N 34°38' W 076°40'0 0.0
2017-Jan-10 21:28N 34°38' W 076°40'0 0.0
2017-Jan-10 20:31N 34°38' W 076°40'0 0.0
2017-Jan-10 19:31N 34°38' W 076°40'0 0.0
2017-Jan-10 18:33N 34°38' W 076°40'0 0.0
2017-Jan-10 17:31N 34°38' W 076°40'0 0.0
2017-Jan-10 16:31N 34°38' W 076°40'0 0.0
2017-Jan-10 15:32N 34°38' W 076°40'0 0.0
2017-Jan-10 14:32N 34°38' W 076°40'0 0.0
2017-Jan-10 13:32N 34°38' W 076°40'0 0.0
2017-Jan-10 12:33N 34°38' W 076°40'0 0.0
2017-Jan-10 11:30N 34°38' W 076°40'0 0.0
2017-Jan-10 10:32N 34°38' W 076°40'0 0.1
2017-Jan-10 09:31N 34°38' W 076°40'0 0.0
2017-Jan-10 08:31N 34°38' W 076°40'0 0.0
2017-Jan-10 07:31N 34°38' W 076°40'0 0.0
2017-Jan-10 06:31N 34°38' W 076°40'0 0.0
2017-Jan-10 05:32N 34°38' W 076°40'0 0.0
2017-Jan-10 04:29N 34°38' W 076°40'0 0.0
2017-Jan-10 03:32N 34°38' W 076°40'0 0.0
2017-Jan-10 02:32N 34°38' W 076°40'0 0.0
2017-Jan-10 01:32N 34°38' W 076°40'0 0.0
2017-Jan-10 00:31N 34°38' W 076°40'0 0.0
2017-Jan-09 23:31N 34°38' W 076°40'0 0.0
2017-Jan-09 22:31N 34°38' W 076°40'0 0.0
2017-Jan-09 21:32N 34°38' W 076°40'0 0.0
2017-Jan-09 20:33N 34°38' W 076°40'0 0.1
2017-Jan-09 19:31N 34°38' W 076°40'0 0.0
2017-Jan-09 18:31N 34°38' W 076°40'0 0.0
2017-Jan-09 17:32N 34°38' W 076°40'0 0.0
2017-Jan-09 16:33N 34°38' W 076°40'0 0.0
2017-Jan-09 15:33N 34°38' W 076°40'0 0.0
2017-Jan-09 14:33N 34°38' W 076°40'0 0.0
2017-Jan-09 13:33N 34°38' W 076°40'0 0.0
2017-Jan-09 12:30N 34°38' W 076°40'0 0.0
2017-Jan-09 11:33N 34°38' W 076°40'0 0.0
2017-Jan-09 10:33N 34°38' W 076°40'0 0.0
2017-Jan-09 09:33N 34°38' W 076°40'0 0.0
2017-Jan-09 08:33N 34°38' W 076°40'0 0.0
2017-Jan-09 07:31N 34°38' W 076°40'0 0.0
2017-Jan-09 06:31N 34°38' W 076°40'0 0.0
2017-Jan-09 05:31N 34°38' W 076°40'0 0.0
2017-Jan-09 04:31N 34°38' W 076°40'0 0.0
2017-Jan-09 03:31N 34°38' W 076°40'0 0.0
2017-Jan-09 02:33N 34°38' W 076°39'0 0.0
2017-Jan-09 01:26N 34°38' W 076°39'0 0.0
2017-Jan-09 00:32N 34°38' W 076°39'0 0.0
2017-Jan-08 23:31N 34°38' W 076°39'0 0.0
2017-Jan-08 22:31N 34°38' W 076°40'0 0.0
2017-Jan-08 21:31N 34°38' W 076°39'0 0.0
2017-Jan-08 20:29N 34°38' W 076°40'0 0.0
2017-Jan-08 19:31N 34°38' W 076°39'0 0.0
2017-Jan-08 18:31N 34°38' W 076°39'0 0.0
2017-Jan-08 17:31N 34°38' W 076°39'0 0.0
2017-Jan-08 16:31N 34°38' W 076°40'0 0.0
2017-Jan-08 15:31N 34°38' W 076°40'0 0.0
2017-Jan-08 14:31N 34°38' W 076°40'  

Dump ship's entire track history